createdAt,value
2022-11-25T00:01:34.336Z,98471.59
2022-11-25T00:04:02.124Z,98488.06
2022-11-25T00:06:34.414Z,98488.94
2022-11-25T00:09:11.746Z,98471.56
2022-11-25T00:11:42.871Z,98491.25
2022-11-25T00:14:15.612Z,98484.28
2022-11-25T00:16:48.136Z,98469.53
2022-11-25T00:19:16.911Z,98472.16
2022-11-25T00:21:44.301Z,98475.00
2022-11-25T00:24:17.662Z,98487.59
2022-11-25T00:26:45.411Z,98493.88
2022-11-25T00:29:14.245Z,98491.25
2022-11-25T00:31:42.267Z,98498.09
2022-11-25T00:34:14.713Z,98501.09
2022-11-25T00:36:42.578Z,98492.84
2022-11-25T00:39:18.573Z,98491.25
2022-11-25T00:42:05.503Z,98495.03
2022-11-25T00:44:35.894Z,98485.31
2022-11-25T00:47:17.442Z,98476.75
2022-11-25T00:49:52.697Z,98476.13
2022-11-25T00:52:26.846Z,98468.16
2022-11-25T00:54:55.140Z,98461.09
2022-11-25T00:57:24.054Z,98465.88
2022-11-25T00:59:51.614Z,98460.84
2022-11-25T01:02:20.221Z,98457.28
2022-11-25T01:04:47.895Z,98463.38
2022-11-25T01:07:16.101Z,98465.88
2022-11-25T01:09:44.310Z,98478.06
2022-11-25T01:12:12.128Z,98462.22
2022-11-25T01:14:39.742Z,98465.06
2022-11-25T01:17:07.268Z,98454.63
2022-11-25T01:19:38.386Z,98446.78
2022-11-25T01:22:09.443Z,98453.97
2022-11-25T01:24:36.946Z,98452.94
2022-11-25T01:27:04.517Z,98459.25
2022-11-25T01:29:31.881Z,98467.00
2022-11-25T01:31:59.278Z,98469.75
2022-11-25T01:34:28.585Z,98469.81
2022-11-25T01:36:55.977Z,98475.00
2022-11-25T01:39:32.065Z,98475.59
2022-11-25T01:42:02.079Z,98478.88
2022-11-25T01:44:33.075Z,98483.22
2022-11-25T01:47:18.655Z,98459.47
2022-11-25T01:50:05.194Z,98473.06
2022-11-25T01:52:46.502Z,98471.56
2022-11-25T01:55:23.583Z,98472.91
2022-11-25T01:58:00.992Z,98472.16
2022-11-25T02:00:28.494Z,98465.41
2022-11-25T02:02:57.824Z,98459.56
2022-11-25T02:06:08.983Z,98452.63
2022-11-25T02:08:36.623Z,98456.25
2022-11-25T02:11:04.787Z,98466.31
2022-11-25T02:13:33.896Z,98462.44
2022-11-25T02:16:01.359Z,98457.53
2022-11-25T02:18:29.289Z,98447.78
2022-11-25T02:20:56.692Z,98459.91
2022-11-25T02:24:18.224Z,98454.78
2022-11-25T02:26:45.874Z,98452.47
2022-11-25T02:29:13.526Z,98459.47
2022-11-25T02:31:40.878Z,98454.53
2022-11-25T02:34:09.690Z,98464.72
2022-11-25T02:36:37.372Z,98470.88
2022-11-25T02:39:05.351Z,98467.00
2022-11-25T02:41:44.498Z,98472.94
2022-11-25T02:44:12.066Z,98465.19
2022-11-25T02:46:39.566Z,98468.16
2022-11-25T02:49:09.614Z,98452.50
2022-11-25T02:51:42.020Z,98466.41
2022-11-25T02:54:09.875Z,98449.84
2022-11-25T09:06:12.305Z,98773.78
2022-11-25T09:12:36.420Z,98772.97
2022-11-25T09:19:33.787Z,98764.47
2022-11-25T09:27:23.287Z,98759.59
2022-11-25T09:36:33.499Z,98761.97
2022-11-25T09:46:33.139Z,98766.88
2022-11-25T09:49:52.304Z,98761.91
2022-11-25T09:52:58.692Z,98772.47
2022-11-25T09:55:30.634Z,98779.69
2022-11-25T09:58:42.430Z,98766.47
2022-11-25T10:01:26.174Z,98769.53
2022-11-25T10:04:20.296Z,98771.34
2022-11-25T10:06:58.259Z,98782.00
2022-11-25T10:09:34.082Z,98777.38
2022-11-25T10:12:32.539Z,98784.16
2022-11-25T10:15:32.623Z,98784.31
2022-11-25T10:18:42.409Z,98784.31
2022-11-25T10:21:14.133Z,98779.50
2022-11-25T10:23:41.500Z,98783.44
2022-11-25T10:26:22.530Z,98777.50
2022-11-25T10:29:14.736Z,98785.16
2022-11-25T10:31:45.391Z,98778.88
2022-11-25T10:34:39.286Z,98789.38
2022-11-25T10:37:26.140Z,98779.97
2022-11-25T10:39:53.535Z,98784.03
2022-11-25T10:42:27.414Z,98791.00
2022-11-25T10:44:55.911Z,98778.19
2022-11-25T10:48:28.727Z,98780.16
2022-11-25T10:52:00.399Z,98789.63
2022-11-25T10:54:29.665Z,98798.13
2022-11-25T10:57:19.919Z,98800.06
2022-11-25T11:00:01.775Z,98803.38
2022-11-25T11:02:41.727Z,98808.66
2022-11-25T11:05:08.869Z,98806.91
2022-11-25T11:07:45.371Z,98808.75
2022-11-25T11:10:26.639Z,98818.59
2022-11-25T11:13:25.792Z,98815.03
2022-11-25T11:15:54.861Z,98822.16
2022-11-25T11:18:41.968Z,98821.47
2022-11-25T11:21:35.864Z,98817.56
2022-11-25T11:24:38.060Z,98823.16
2022-11-25T11:27:25.723Z,98820.06
2022-11-25T11:30:23.895Z,98812.03
2022-11-25T11:33:36.767Z,98829.66
2022-11-25T11:36:51.601Z,98824.75
2022-11-25T11:40:02.931Z,98830.03
2022-11-25T11:43:20.589Z,98837.59
2022-11-25T11:46:30.517Z,98836.41
2022-11-25T11:49:43.976Z,98834.00
2022-11-25T11:53:05.786Z,98838.97
2022-11-25T11:56:35.988Z,98846.81
2022-11-25T11:59:55.850Z,98839.06
2022-11-25T12:03:18.599Z,98835.50
2022-11-25T12:05:48.201Z,98854.59
2022-11-25T12:08:34.274Z,98845.31
2022-11-25T12:11:13.533Z,98846.22
2022-11-25T12:14:23.547Z,98851.13
2022-11-25T12:16:59.243Z,98855.38
2022-11-25T12:20:07.082Z,98851.44
2022-11-25T12:23:43.836Z,98857.13
2022-11-25T12:26:47.068Z,98870.56
2022-11-25T12:29:44.109Z,98865.53
2022-11-25T12:32:48.494Z,98863.22
2022-11-25T12:35:34.000Z,98867.88
2022-11-25T12:38:47.803Z,98864.00
2022-11-25T12:41:59.613Z,98865.88
2022-11-25T12:45:11.986Z,98867.63
2022-11-25T12:47:39.258Z,98878.38
2022-11-25T12:50:14.463Z,98883.28
2022-11-25T12:53:11.750Z,98890.22
2022-11-25T12:55:40.707Z,98886.59
2022-11-25T12:59:33.630Z,98890.28
2022-11-25T13:03:14.139Z,98891.47
2022-11-25T13:06:27.133Z,98888.06
2022-11-25T13:09:43.339Z,98899.69
2022-11-25T13:13:01.646Z,98895.72
2022-11-25T13:15:44.967Z,98904.75
2022-11-25T13:18:29.082Z,98891.84
2022-11-25T13:21:05.327Z,98906.63
2022-11-25T13:23:57.305Z,98912.06
2022-11-25T13:26:45.820Z,98906.63
2022-11-25T13:29:12.847Z,98913.72
2022-11-25T13:32:03.285Z,98914.13
2022-11-25T13:34:34.296Z,98925.06
2022-11-25T13:37:33.510Z,98924.09
2022-11-25T13:40:39.129Z,98919.31
2022-11-25T13:43:22.567Z,98927.84
2022-11-25T13:45:50.221Z,98932.59
2022-11-25T13:48:30.600Z,98933.03
2022-11-25T13:51:24.819Z,98939.19
2022-11-25T13:54:06.411Z,98939.19
2022-11-25T13:56:37.517Z,98938.53
2022-11-25T13:59:10.730Z,98936.44
2022-11-25T14:01:46.690Z,98938.75
2022-11-25T14:04:16.221Z,98946.63
2022-11-25T14:07:27.998Z,98943.91
2022-11-25T14:10:45.867Z,98949.63
2022-11-25T14:14:04.135Z,98954.75
2022-11-25T14:17:24.644Z,98957.25
2022-11-25T14:20:23.059Z,98950.69
2022-11-25T14:23:52.234Z,98966.41
2022-11-25T14:26:49.647Z,98965.94
2022-11-25T14:29:32.564Z,98974.97
2022-11-25T14:32:23.108Z,98967.84
2022-11-25T14:35:09.740Z,98970.91
2022-11-25T14:38:07.739Z,98967.84
2022-11-25T14:41:19.858Z,98974.03
2022-11-25T14:44:04.663Z,98975.03
2022-11-25T14:46:32.209Z,98984.03
2022-11-25T14:49:07.700Z,98989.81
2022-11-25T14:51:39.274Z,99002.69
2022-11-25T14:54:10.392Z,98996.69
2022-11-25T14:56:39.240Z,98991.66
2022-11-25T14:59:10.482Z,98988.53
2022-11-25T15:01:50.227Z,98996.69
2022-11-25T15:04:25.407Z,98994.28
2022-11-25T15:07:01.892Z,99003.97
2022-11-25T15:09:42.258Z,99005.91
2022-11-25T15:12:20.365Z,99013.19
2022-11-25T15:14:55.714Z,99002.97
2022-11-25T15:17:37.340Z,99008.88
2022-11-25T15:20:17.576Z,99013.59
2022-11-25T15:22:53.958Z,99015.78
2022-11-25T15:25:21.571Z,99019.09
2022-11-25T15:27:53.184Z,99022.34
2022-11-25T15:30:31.835Z,99032.41
2022-11-25T15:32:59.531Z,99039.06
2022-11-25T15:35:27.955Z,99042.63
2022-11-25T15:37:55.367Z,99046.88
2022-11-25T15:40:44.374Z,99048.00
2022-11-25T15:43:30.280Z,99052.59
2022-11-25T15:46:05.789Z,99049.38
2022-11-25T15:48:46.190Z,99051.66
2022-11-25T15:51:48.447Z,99049.38
2022-11-25T15:54:42.554Z,99048.81
2022-11-25T15:57:37.426Z,99064.06
2022-11-25T16:00:23.250Z,99064.78
2022-11-25T16:02:59.570Z,99070.94
2022-11-25T16:05:37.507Z,99068.66
2022-11-25T16:08:33.753Z,99070.28
2022-11-25T16:11:19.356Z,99063.38
2022-11-25T16:13:50.372Z,99072.22
2022-11-25T16:16:31.297Z,99067.28
2022-11-25T16:19:16.624Z,99082.78
2022-11-25T16:21:54.635Z,99084.84
2022-11-25T16:24:41.765Z,99091.47
2022-11-25T16:27:23.583Z,99103.31
2022-11-25T16:30:20.370Z,99097.59
2022-11-25T16:32:47.632Z,99098.59
2022-11-25T16:35:22.176Z,99106.53
2022-11-25T16:37:49.943Z,99112.03
2022-11-25T16:40:19.145Z,99116.63
2022-11-25T16:42:53.357Z,99128.91
2022-11-25T16:45:28.272Z,99131.31
2022-11-25T16:47:55.958Z,99128.91
2022-11-25T16:50:24.035Z,99130.16
2022-11-25T16:52:51.458Z,99139.81
2022-11-25T16:55:19.011Z,99135.34
2022-11-25T16:57:46.995Z,99139.22
2022-11-25T17:00:18.100Z,99152.84
2022-11-25T17:02:45.755Z,99156.31
2022-11-25T17:05:25.675Z,99164.09
2022-11-25T17:07:53.177Z,99157.47
2022-11-25T17:10:21.632Z,99158.38
2022-11-25T17:12:50.828Z,99168.91
2022-11-25T17:15:35.941Z,99164.47
2022-11-25T17:18:07.073Z,99172.72
2022-11-25T17:20:34.946Z,99185.81
2022-11-25T17:23:02.670Z,99182.00
2022-11-25T17:25:36.536Z,99186.88
2022-11-25T17:28:04.811Z,99185.88
2022-11-25T17:30:32.497Z,99192.94
2022-11-25T17:33:18.348Z,99187.03
2022-11-25T17:35:46.400Z,99193.50
2022-11-25T17:38:20.147Z,99197.28
2022-11-25T17:40:47.916Z,99208.63
2022-11-25T17:43:20.989Z,99206.84
2022-11-25T17:45:48.344Z,99193.63
2022-11-25T17:48:18.311Z,99210.41
2022-11-25T17:50:46.875Z,99219.38
2022-11-25T17:53:14.231Z,99228.09
2022-11-25T17:55:42.009Z,99230.28
2022-11-25T17:58:14.669Z,99226.25
2022-11-25T18:00:44.924Z,99247.16
2022-11-25T18:03:16.361Z,99249.47
2022-11-25T18:05:44.014Z,99260.25
2022-11-25T18:08:11.307Z,99257.94
2022-11-25T18:10:39.619Z,99265.44
2022-11-25T18:13:06.963Z,99265.88
2022-11-25T18:15:34.886Z,99264.47
2022-11-25T18:18:22.193Z,99271.28
2022-11-25T18:20:50.856Z,99275.19
2022-11-25T18:23:19.471Z,99274.72
2022-11-25T18:25:47.407Z,99282.41
2022-11-25T18:28:26.903Z,99276.25
2022-11-25T18:30:58.430Z,99277.94
2022-11-25T18:33:25.847Z,99285.59
2022-11-25T18:35:53.134Z,99279.81
2022-11-25T18:38:20.404Z,99286.13
2022-11-25T18:40:53.299Z,99298.31
2022-11-25T18:43:26.622Z,99298.38
2022-11-25T18:45:54.404Z,99304.31
2022-11-25T18:48:27.700Z,99312.84
2022-11-25T18:50:57.043Z,99319.75
2022-11-25T18:53:24.351Z,99327.78
2022-11-25T18:55:52.168Z,99329.22
